createdAt,value
2022-09-25T00:02:49.638Z,13.5
2022-09-25T00:08:41.778Z,13.7
2022-09-25T00:14:32.106Z,13.5
2022-09-25T00:20:23.111Z,13.5
2022-09-25T00:26:14.046Z,13.4
2022-09-25T00:32:05.067Z,13.4
2022-09-25T00:37:57.483Z,13.3
2022-09-25T00:43:48.907Z,13.4
2022-09-25T00:49:39.633Z,13.3
2022-09-25T00:55:31.037Z,13.3
2022-09-25T01:01:22.566Z,13.4
2022-09-25T01:07:14.348Z,13.3
2022-09-25T01:13:05.446Z,13.3
2022-09-25T01:18:56.338Z,13.3
2022-09-25T01:24:47.696Z,13.3
2022-09-25T01:30:39.294Z,13.3
2022-09-25T01:36:30.351Z,13.4
2022-09-25T01:42:21.172Z,13.3
2022-09-25T01:48:12.717Z,13.2
2022-09-25T01:54:00.972Z,13.1
2022-09-25T01:59:52.896Z,13.1
2022-09-25T02:05:44.362Z,13.1
2022-09-25T02:11:32.890Z,13.1
2022-09-25T02:17:22.021Z,13.1
2022-09-25T02:23:12.685Z,13
2022-09-25T02:29:02.963Z,13
2022-09-25T02:34:55.027Z,13
2022-09-25T02:40:47.179Z,12.9
2022-09-25T02:46:38.193Z,12.9
2022-09-25T02:52:28.980Z,13
2022-09-25T02:58:21.791Z,13
2022-09-25T03:04:13.192Z,13
2022-09-25T03:10:03.899Z,12.9
2022-09-25T03:15:55.988Z,12.9
2022-09-25T03:21:47.831Z,12.9
2022-09-25T03:27:39.840Z,12.9
2022-09-25T03:33:31.105Z,12.9
2022-09-25T03:39:21.917Z,12.9
2022-09-25T03:45:12.944Z,12.9
2022-09-25T03:51:04.141Z,12.8
2022-09-25T03:56:56.026Z,12.8
2022-09-25T04:02:48.230Z,12.9
2022-09-25T04:08:40.984Z,12.9
2022-09-25T04:14:32.081Z,12.8
2022-09-25T04:20:22.537Z,12.8
2022-09-25T04:26:13.398Z,12.8
2022-09-25T04:33:09.620Z,12.8
2022-09-25T04:39:00.277Z,12.8
2022-09-25T04:44:51.017Z,12.8
2022-09-25T04:50:42.504Z,12.8
2022-09-25T11:47:08.724Z,15.2
2022-09-25T12:40:24.636Z,15.5
2022-09-25T12:53:16.344Z,16.2
2022-09-25T13:06:43.827Z,16
2022-09-25T13:19:12.252Z,16.3
2022-09-25T13:38:13.862Z,16.4
2022-09-25T13:44:11.456Z,16.7
2022-09-25T13:50:22.786Z,16.6
2022-09-25T13:56:16.448Z,16.7
2022-09-25T14:02:08.896Z,16.9
2022-09-25T14:08:00.902Z,17
2022-09-25T14:14:15.001Z,16.4
2022-09-25T14:20:05.601Z,16.4
2022-09-25T14:25:58.238Z,16.6
2022-09-25T14:31:54.618Z,17.1
2022-09-25T14:38:42.298Z,16.6
2022-09-25T14:44:55.344Z,17.1
2022-09-25T14:51:30.699Z,17.3
2022-09-25T14:57:23.369Z,16.9
2022-09-25T15:03:15.120Z,16.8
2022-09-25T15:09:05.975Z,16.9
2022-09-25T15:14:57.558Z,16.9
2022-09-25T15:20:48.389Z,16.8
2022-09-25T15:26:39.387Z,16.8
2022-09-25T15:32:29.761Z,16.6
2022-09-25T15:38:19.835Z,16.7
2022-09-25T15:44:10.238Z,16.6
2022-09-25T15:50:01.294Z,16.5
2022-09-25T15:55:56.032Z,16.5
2022-09-25T16:01:46.936Z,16.4
2022-09-25T16:07:39.858Z,16.4
2022-09-25T16:13:32.599Z,16.2
2022-09-25T16:19:25.974Z,16.4
2022-09-25T16:25:17.095Z,16.2
2022-09-25T16:31:07.526Z,16.1
2022-09-25T16:36:58.930Z,16
2022-09-25T16:42:50.038Z,16
2022-09-25T16:48:40.139Z,15.8
2022-09-25T16:54:31.077Z,15.7
2022-09-25T17:00:21.166Z,15.5
2022-09-25T17:06:12.096Z,15.3
2022-09-25T17:12:02.916Z,15.2
2022-09-25T17:17:53.313Z,15.1
2022-09-25T17:23:43.788Z,14.8
2022-09-25T17:29:33.865Z,14.6
2022-09-25T17:35:24.696Z,14.5
2022-09-25T17:41:14.286Z,14.3
2022-09-25T17:47:04.903Z,14.1
2022-09-25T17:52:54.604Z,13.9
2022-09-25T17:58:44.990Z,13.8
2022-09-25T18:04:35.465Z,13.7
2022-09-25T18:10:25.861Z,13.7
2022-09-25T18:16:16.544Z,13.6
2022-09-25T18:22:06.801Z,13.4
2022-09-25T18:27:56.749Z,13.3
2022-09-25T18:33:47.585Z,13.1
2022-09-25T18:39:37.870Z,13.2
2022-09-25T18:45:28.378Z,13.2
2022-09-25T18:51:17.322Z,13.1
2022-09-25T18:57:08.095Z,13.1
2022-09-25T19:02:58.595Z,13
2022-09-25T19:08:51.703Z,12.8
2022-09-25T19:14:42.087Z,12.7
2022-09-25T19:20:30.600Z,12.8
2022-09-25T19:26:19.916Z,12.6
2022-09-25T19:32:11.186Z,12.5
2022-09-25T19:38:00.791Z,12.4
2022-09-25T19:43:56.472Z,12.2
2022-09-25T19:49:49.527Z,12
2022-09-25T19:55:40.677Z,11.9
2022-09-25T20:01:33.506Z,12.1
2022-09-25T20:07:25.325Z,12.1
2022-09-25T20:13:15.764Z,11.6
2022-09-25T20:19:08.354Z,11.6
2022-09-25T20:24:58.602Z,11.7
2022-09-25T20:30:49.595Z,11.3
2022-09-25T20:36:39.237Z,11.4
2022-09-25T20:42:29.604Z,11.1
2022-09-25T20:48:19.728Z,11.1
2022-09-25T20:54:10.373Z,11.3
2022-09-25T21:00:01.086Z,10.8
2022-09-25T21:05:51.371Z,10.8
2022-09-25T21:11:42.062Z,10.8
2022-09-25T21:17:34.502Z,10.5
2022-09-25T21:23:25.614Z,10.9
2022-09-25T21:29:16.698Z,10.8
2022-09-25T21:35:08.675Z,10.4
2022-09-25T21:40:59.982Z,10.5
2022-09-25T21:46:51.076Z,10.8
2022-09-25T21:52:43.548Z,10.9
2022-09-25T21:58:34.198Z,10.9
2022-09-25T22:04:24.734Z,10.6
2022-09-25T22:10:15.474Z,10.3
2022-09-25T22:16:07.747Z,9.9
2022-09-25T22:21:59.288Z,10
2022-09-25T22:27:51.049Z,10.4
2022-09-25T22:33:41.332Z,10.3
2022-09-25T22:39:34.632Z,10
2022-09-25T22:45:27.236Z,10
2022-09-25T22:51:18.306Z,9.9
2022-09-25T22:57:11.309Z,10
2022-09-25T23:03:02.334Z,10
2022-09-25T23:08:52.077Z,9.8
2022-09-25T23:14:42.930Z,10
2022-09-25T23:20:35.045Z,9.9
2022-09-25T23:26:27.031Z,9.8
2022-09-25T23:32:17.697Z,9.8
2022-09-25T23:38:06.775Z,9.8
2022-09-25T23:43:57.438Z,9.6
2022-09-25T23:49:48.264Z,9.6
2022-09-25T23:55:40.465Z,9.6
